Time;durP1;ratioP1;P1;durP2;ratioP2;P2;SDS_P1;SDS_P2;PMS_P1;PMS_P2;Temp;Humidity;BMP_temperature;BMP_pressure;BME280_temperature;BME280_humidity;BME280_pressure;Samples;Min_cycle;Max_cycle;Signal;HPM_P1;HPM_P2
2021/04/13 00:01:16;;;;;;;;;;;;;;;-0.48;100.00;101975.72;5092400;28;19931;-69
2021/04/13 00:03:43;;;;;;;;;;;;;;;-0.53;100.00;101973.13;5091785;28;20311;-69
2021/04/13 00:06:09;;;;;;;;;;;;;;;-0.59;100.00;101974.13;5091865;28;19932;-70
2021/04/13 00:08:35;;;;;;;;;;;;;;;-0.65;100.00;101973.31;5073783;28;19953;-69
2021/04/13 00:11:03;;;;;;;;;;;;;;;-0.67;100.00;101983.97;5091552;28;20478;-69
2021/04/13 00:13:29;;;;;;;;;;;;;;;-0.67;100.00;101978.66;5091379;28;19978;-69
2021/04/13 00:15:56;;;;;;;;;;;;;;;-0.65;100.00;101978.66;5091742;28;19931;-69
2021/04/13 00:18:24;;;;;;;;;;;;;;;-0.64;100.00;101973.28;5091772;28;19924;-70
2021/04/13 00:20:54;;;;;;;;;;;;;;;-0.66;100.00;101974.22;5091579;28;20306;-70
2021/04/13 00:23:20;;;;;;;;;;;;;;;-0.68;100.00;101977.78;5073631;28;19957;-69
2021/04/13 00:25:47;;;;;;;;;;;;;;;-0.68;100.00;101976.91;5091719;28;20023;-70
2021/04/13 00:28:13;;;;;;;;;;;;;;;-0.67;100.00;101970.66;5091428;28;20018;-69
2021/04/13 00:30:42;;;;;;;;;;;;;;;-0.69;100.00;101970.69;5091545;28;20418;-70
2021/04/13 00:33:13;;;;;;;;;;;;;;;-0.71;100.00;101975.16;5091794;28;19924;-69
2021/04/13 00:35:44;;;;;;;;;;;;;;;-0.70;100.00;101973.38;5073180;28;19931;-70
2021/04/13 00:38:30;;;;;;;;;;;;;;;-0.77;100.00;101969.91;5091432;28;20018;-70
2021/04/13 00:40:59;;;;;;;;;;;;;;;-0.79;100.00;101974.38;5091592;28;19924;-70
2021/04/13 00:43:25;;;;;;;;;;;;;;;-0.82;100.00;101974.41;5091313;28;19924;-69
2021/04/13 00:45:52;;;;;;;;;;;;;;;-0.83;100.00;101977.13;5090769;28;19963;-70
2021/04/13 00:48:20;;;;;;;;;;;;;;;-0.81;100.00;101980.66;5091472;28;19925;-70
2021/04/13 00:50:47;;;;;;;;;;;;;;;-0.88;100.00;101972.72;5091175;28;19928;-69
2021/04/13 00:53:16;;;;;;;;;;;;;;;-0.90;100.00;101969.19;5073179;28;19924;-69
2021/04/13 00:55:46;;;;;;;;;;;;;;;-0.92;100.00;101973.69;5090995;28;20292;-70
2021/04/13 00:58:14;;;;;;;;;;;;;;;-0.93;100.00;101971.91;5073395;28;19978;-69
2021/04/13 01:00:42;;;;;;;;;;;;;;;-0.98;100.00;101973.75;5091542;28;19996;-69
2021/04/13 01:03:13;;;;;;;;;;;;;;;-0.96;100.00;101979.06;5072791;28;19939;-69
2021/04/13 01:05:40;;;;;;;;;;;;;;;-0.99;100.00;101974.63;5072955;28;19931;-69
2021/04/13 01:08:23;;;;;;;;;;;;;;;-1.03;100.00;101975.59;5091058;28;20387;-71
2021/04/13 01:10:51;;;;;;;;;;;;;;;-1.05;100.00;101980.06;5090860;28;19932;-69
2021/04/13 01:13:20;;;;;;;;;;;;;;;-1.05;100.00;101974.75;5091090;28;20379;-70
2021/04/13 01:15:47;;;;;;;;;;;;;;;-1.02;100.00;101974.69;5090735;28;19931;-69
2021/04/13 01:18:16;;;;;;;;;;;;;;;-0.98;100.00;101976.41;5091160;28;19924;-69
2021/04/13 01:20:45;;;;;;;;;;;;;;;-0.92;100.00;101980.78;5090722;28;19932;-69
2021/04/13 01:23:15;;;;;;;;;;;;;;;-0.86;100.00;101981.56;5091194;28;19928;-71
2021/04/13 01:25:42;;;;;;;;;;;;;;;-0.89;100.00;101983.41;5092741;28;19924;-70
2021/04/13 01:28:11;;;;;;;;;;;;;;;-0.87;100.00;101977.16;5095386;28;19924;-69
2021/04/13 01:30:41;;;;;;;;;;;;;;;-0.86;100.00;101981.56;5095058;28;19924;-69
2021/04/13 01:33:09;;;;;;;;;;;;;;;-0.92;100.00;101976.34;5094939;28;20001;-69
2021/04/13 01:35:35;;;;;;;;;;;;;;;-0.92;100.00;101981.66;5094910;28;19930;-70
2021/04/13 01:38:04;;;;;;;;;;;;;;;-0.97;100.00;101983.50;5094851;28;19955;-70
2021/04/13 01:40:40;;;;;;;;;;;;;;;-0.98;100.00;101981.75;5094947;28;20023;-69
2021/04/13 01:43:06;;;;;;;;;;;;;;;-1.06;100.00;101970.31;5094761;28;20018;-69
2021/04/13 01:45:33;;;;;;;;;;;;;;;-1.09;100.00;101975.69;5094590;28;20406;-69
2021/04/13 01:47:59;;;;;;;;;;;;;;;-1.15;100.00;101981.06;5095040;28;19928;-69
2021/04/13 01:50:26;;;;;;;;;;;;;;;-1.20;100.00;101982.03;5094972;28;19932;-69
2021/04/13 01:53:00;;;;;;;;;;;;;;;-1.24;100.00;101984.75;5094843;28;20302;-69
2021/04/13 01:55:28;;;;;;;;;;;;;;;-1.28;100.00;101983.91;5094150;28;19924;-70
2021/04/13 01:57:56;;;;;;;;;;;;;;;-1.30;100.00;101983.03;5076537;28;20367;-69
2021/04/13 02:00:26;;;;;;;;;;;;;;;-1.29;100.00;101982.13;5094747;28;20391;-69
2021/04/13 02:02:57;;;;;;;;;;;;;;;-1.29;100.00;101982.13;5076298;28;19924;-69
2021/04/13 02:05:26;;;;;;;;;;;;;;;-1.28;100.00;101983.00;5076438;28;19924;-69
2021/04/13 02:07:58;;;;;;;;;;;;;;;-1.28;100.00;101988.31;5094619;28;19937;-70
2021/04/13 02:10:29;;;;;;;;;;;;;;;-1.36;100.00;101983.97;5076469;28;19928;-69
2021/04/13 02:12:56;;;;;;;;;;;;;;;-1.40;100.00;101979.59;5093740;28;19924;-69
2021/04/13 02:15:27;;;;;;;;;;;;;;;-1.43;100.00;101992.06;5093824;28;20311;-70
2021/04/13 02:17:56;;;;;;;;;;;;;;;-1.49;100.00;101989.47;5076209;28;19928;-71
2021/04/13 02:20:26;;;;;;;;;;;;;;;-1.53;100.00;101983.28;5094295;28;19951;-70
2021/04/13 02:22:52;;;;;;;;;;;;;;;-1.52;100.00;101980.59;5094086;28;19985;-71
2021/04/13 02:25:23;;;;;;;;;;;;;;;-1.53;100.00;101989.50;5075746;28;19938;-70
2021/04/13 02:27:49;;;;;;;;;;;;;;;-1.50;100.00;101985.91;5094151;28;19942;-70
2021/04/13 02:30:17;;;;;;;;;;;;;;;-1.48;100.00;101991.22;5094022;28;19928;-70
2021/04/13 02:32:44;;;;;;;;;;;;;;;-1.39;100.00;101988.44;5093438;28;19924;-70
2021/04/13 02:35:16;;;;;;;;;;;;;;;-1.31;100.00;101986.63;5093833;28;20403;-69
2021/04/13 02:37:45;;;;;;;;;;;;;;;-1.20;100.00;101987.34;5093184;28;20375;-70
2021/04/13 02:40:15;;;;;;;;;;;;;;;-1.23;100.00;101994.50;5094021;28;20299;-70
2021/04/13 02:42:43;;;;;;;;;;;;;;;-1.16;100.00;101992.63;5093713;28;19969;-69
2021/04/13 02:45:09;;;;;;;;;;;;;;;-1.24;100.00;101990.09;5093506;28;19924;-69
2021/04/13 02:47:39;;;;;;;;;;;;;;;-1.27;100.00;101993.66;5093635;28;19977;-69
2021/04/13 02:50:06;;;;;;;;;;;;;;;-1.26;100.00;101995.41;5093324;28;19935;-70
2021/04/13 02:52:36;;;;;;;;;;;;;;;-1.25;100.00;101994.50;5093421;28;20410;-69
2021/04/13 02:55:03;;;;;;;;;;;;;;;-1.24;100.00;102000.75;5093615;28;19928;-69
2021/04/13 02:57:38;;;;;;;;;;;;;;;-1.25;100.00;102001.63;5075068;28;19924;-70
2021/04/13 03:00:06;;;;;;;;;;;;;;;-1.26;100.00;101999.88;5093194;28;19924;-69
2021/04/13 03:02:37;;;;;;;;;;;;;;;-1.26;100.00;101995.41;5093383;28;20360;-70
2021/04/13 03:05:04;;;;;;;;;;;;;;;-1.24;100.00;102001.63;5093362;28;19931;-70
2021/04/13 03:07:31;;;;;;;;;;;;;;;-1.28;100.00;101997.22;5093058;28;19924;-70
2021/04/13 03:10:04;;;;;;;;;;;;;;;-1.23;100.00;101992.72;5093200;28;19935;-69
2021/04/13 03:12:31;;;;;;;;;;;;;;;-1.21;100.00;101998.91;5074906;28;19924;-69
2021/04/13 03:14:57;;;;;;;;;;;;;;;-1.22;100.00;102002.47;5093186;28;19931;-69
2021/04/13 03:17:25;;;;;;;;;;;;;;;-1.22;100.00;101999.78;5093055;28;19924;-70
2021/04/13 03:19:52;;;;;;;;;;;;;;;-1.22;100.00;101997.13;5093054;28;19924;-70
2021/04/13 03:22:20;;;;;;;;;;;;;;;-1.21;100.00;101996.22;5092936;28;19924;-69
2021/04/13 03:24:47;;;;;;;;;;;;;;;-1.29;100.00;101998.13;5092829;28;19935;-69
2021/04/13 03:27:15;;;;;;;;;;;;;;;-1.37;100.00;101997.31;5092688;28;19931;-70
2021/04/13 03:29:44;;;;;;;;;;;;;;;-1.36;100.00;101999.09;5092756;28;19928;-69
2021/04/13 03:32:10;;;;;;;;;;;;;;;-1.34;100.00;102007.94;5092782;28;19924;-69
2021/04/13 03:34:39;;;;;;;;;;;;;;;-1.32;100.00;102002.59;5092542;28;20015;-70
2021/04/13 03:37:05;;;;;;;;;;;;;;;-1.31;100.00;102005.25;5092581;28;19966;-69
2021/04/13 03:39:32;;;;;;;;;;;;;;;-1.21;100.00;102000.69;5092699;28;19924;-69
2021/04/13 03:41:59;;;;;;;;;;;;;;;-1.19;100.00;102001.53;5092728;28;19927;-70
2021/04/13 03:44:26;;;;;;;;;;;;;;;-1.13;100.00;102008.59;5092235;28;19989;-70
2021/04/13 03:46:52;;;;;;;;;;;;;;;-1.05;100.00;101999.59;5092317;28;19932;-70
2021/04/13 03:49:20;;;;;;;;;;;;;;;-1.07;100.00;102000.50;5091395;28;19924;-69
2021/04/13 03:51:47;;;;;;;;;;;;;;;-1.06;100.00;102007.63;5092171;28;19928;-69
2021/04/13 03:54:20;;;;;;;;;;;;;;;-1.08;100.00;101999.66;5092443;28;20372;-69
2021/04/13 03:56:46;;;;;;;;;;;;;;;-1.12;100.00;102008.59;5091958;28;19931;-69
2021/04/13 03:59:16;;;;;;;;;;;;;;;-1.15;100.00;102007.72;5092284;28;19924;-69
2021/04/13 04:01:46;;;;;;;;;;;;;;;-1.15;100.00;102007.72;5091512;28;20007;-69
2021/04/13 04:04:28;;;;;;;;;;;;;;;-1.21;100.00;102006.91;5090563;28;20011;-74
2021/04/13 04:06:57;;;;;;;;;;;;;;;-1.24;100.00;102004.28;5092015;28;19924;-70
2021/04/13 04:09:34;;;;;;;;;;;;;;;-1.26;100.00;102011.38;5091452;28;19931;-70
2021/04/13 04:12:01;;;;;;;;;;;;;;;-1.27;100.00;101999.00;5091999;28;19932;-69
2021/04/13 04:14:28;;;;;;;;;;;;;;;-1.32;100.00;102006.16;5091857;28;19924;-70
2021/04/13 04:17:02;;;;;;;;;;;;;;;-1.39;100.00;102004.44;5091506;28;19924;-69
2021/04/13 04:19:30;;;;;;;;;;;;;;;-1.43;100.00;102010.69;5091776;28;19924;-70
2021/04/13 04:21:58;;;;;;;;;;;;;;;-1.41;100.00;102007.13;5091757;28;19950;-69
2021/04/13 04:24:28;;;;;;;;;;;;;;;-1.36;100.00;102010.63;5091862;28;19947;-69
2021/04/13 04:26:55;;;;;;;;;;;;;;;-1.33;100.00;102008.84;5090553;28;20307;-70
2021/04/13 04:29:32;;;;;;;;;;;;;;;-1.30;100.00;102012.31;5091777;28;20018;-70
2021/04/13 04:32:10;;;;;;;;;;;;;;;-1.33;100.00;102020.38;5094709;28;19956;-70
2021/04/13 04:34:50;;;;;;;;;;;;;;;-1.38;100.00;102023.09;5078437;28;19931;-71
2021/04/13 04:37:28;;;;;;;;;;;;;;;-1.38;100.00;102022.19;5094122;28;19924;-70
2021/04/13 04:40:10;;;;;;;;;;;;;;;-1.33;100.00;102027.50;5093823;28;20001;-70
2021/04/13 04:42:37;;;;;;;;;;;;;;;-1.31;100.00;102029.25;5091565;28;20298;-70
2021/04/13 04:45:10;;;;;;;;;;;;;;;-1.26;100.00;102030.03;5073314;28;19924;-70
2021/04/13 04:47:38;;;;;;;;;;;;;;;-1.16;100.00;102035.28;5073129;28;19931;-70
2021/04/13 04:50:04;;;;;;;;;;;;;;;-1.09;100.00;102032.53;5090712;28;19928;-69
2021/04/13 04:52:30;;;;;;;;;;;;;;;-1.03;100.00;102029.78;5090650;28;19970;-70
2021/04/13 04:54:56;;;;;;;;;;;;;;;-1.01;100.00;102038.66;5090707;28;19931;-69
2021/04/13 04:57:22;;;;;;;;;;;;;;;-0.99;100.00;102037.75;5089745;28;20387;-70
2021/04/13 04:59:48;;;;;;;;;;;;;;;-0.94;100.00;102043.91;5072815;28;19928;-70
2021/04/13 05:02:13;;;;;;;;;;;;;;;-0.86;100.00;102045.56;5091291;28;19931;-69
2021/04/13 05:04:41;;;;;;;;;;;;;;;-0.80;100.00;102046.38;5091114;28;19924;-69
2021/04/13 05:07:06;;;;;;;;;;;;;;;-0.70;100.00;102042.72;5089701;28;20036;-69
2021/04/13 05:09:32;;;;;;;;;;;;;;;-0.65;100.00;102053.34;5089966;28;20390;-70
2021/04/13 05:11:59;;;;;;;;;;;;;;;-0.63;100.00;102055.06;5082095;28;19928;-70
2021/04/13 05:14:24;;;;;;;;;;;;;;;-0.58;100.00;102042.53;5072358;28;19924;-70
2021/04/13 05:16:53;;;;;;;;;;;;;;;-0.51;100.00;102043.34;5090528;28;20304;-70
2021/04/13 05:19:19;;;;;;;;;;;;;;;-0.47;100.00;102039.72;5090247;28;19928;-69
2021/04/13 05:21:46;;;;;;;;;;;;;;;-0.38;100.00;102049.38;5070877;28;19984;-69
2021/04/13 05:24:12;;;;;;;;;;;;;;;-0.26;100.00;102049.22;5089387;28;19940;-70
2021/04/13 05:26:37;;;;;;;;;;;;;;;-0.05;100.00;102050.66;5090015;28;20001;-71
2021/04/13 05:29:05;;;;;;;;;;;;;;;0.06;100.00;102050.50;5090662;28;19938;-69
2021/04/13 05:31:31;;;;;;;;;;;;;;;0.25;100.00;102048.38;5090440;28;20314;-70
2021/04/13 05:33:57;;;;;;;;;;;;;;;0.59;100.00;102057.59;5090080;28;19924;-71
2021/04/13 05:36:23;;;;;;;;;;;;;;;1.08;100.00;102047.75;5090702;28;19950;-70
2021/04/13 05:38:50;;;;;;;;;;;;;;;1.43;100.00;102049.69;5090591;28;19977;-70
2021/04/13 05:41:16;;;;;;;;;;;;;;;1.67;100.00;102044.69;5090748;28;19924;-71
2021/04/13 05:43:43;;;;;;;;;;;;;;;1.95;100.00;102047.63;5072400;28;20319;-71
2021/04/13 05:46:11;;;;;;;;;;;;;;;2.39;100.00;102052.75;5089732;28;19993;-70
2021/04/13 05:48:37;;;;;;;;;;;;;;;2.56;100.00;102046.97;5077271;28;19935;-70
2021/04/13 05:51:02;;;;;;;;;;;;;;;2.74;100.00;102048.28;5083542;28;20224;-70
2021/04/13 05:53:28;;;;;;;;;;;;;;;2.96;100.00;102048.56;5090387;28;20417;-70
2021/04/13 05:55:55;;;;;;;;;;;;;;;3.21;100.00;102044.28;5089810;28;19928;-70
2021/04/13 05:58:22;;;;;;;;;;;;;;;3.39;100.00;102041.06;5071903;28;19932;-70
2021/04/13 06:00:49;;;;;;;;;;;;;;;3.49;100.00;102047.91;5089681;28;19924;-70
2021/04/13 06:03:16;;;;;;;;;;;;;;;3.49;100.00;102042.53;5089964;28;19924;-70
2021/04/13 06:05:42;;;;;;;;;;;;;;;3.67;100.00;102051.84;5089836;28;19928;-70
2021/04/13 06:08:09;;;;;;;;;;;;;;;3.81;100.00;102048.72;5090255;28;19924;-70
2021/04/13 06:10:35;;;;;;;;;;;;;;;3.91;100.00;102057.34;5089797;28;19925;-70
2021/04/13 06:13:01;;;;;;;;;;;;;;;4.18;100.00;102062.75;5092361;28;19931;-69
2021/04/13 06:15:29;;;;;;;;;;;;;;;4.31;100.00;102058.72;5093344;28;19951;-70
2021/04/13 06:17:55;;;;;;;;;;;;;;;4.57;100.00;102059.66;5094143;28;19928;-69
2021/04/13 06:20:22;;;;;;;;;;;;;;;4.30;100.00;102065.06;5094643;28;19954;-70
2021/04/13 06:22:48;;;;;;;;;;;;;;;4.30;100.00;102062.38;5093028;28;19970;-70
2021/04/13 06:25:14;;;;;;;;;;;;;;;4.34;100.00;102068.50;5094104;28;20336;-70
2021/04/13 06:27:40;;;;;;;;;;;;;;;4.42;100.00;102074.50;5094883;28;20300;-69
2021/04/13 06:30:07;;;;;;;;;;;;;;;4.36;100.00;102072.03;5095423;28;19924;-70
2021/04/13 06:32:33;;;;;;;;;;;;;;;4.42;100.00;102076.31;5094674;28;19924;-70
2021/04/13 06:34:59;;;;;;;;;;;;;;;4.82;100.00;102070.44;5094407;28;19978;-69
2021/04/13 06:37:25;;;;;;;;;;;;;;;4.87;100.00;102075.66;5092072;28;19959;-70
2021/04/13 06:39:51;;;;;;;;;;;;;;;5.00;100.00;102068.00;5093266;28;20307;-70
2021/04/13 06:42:44;;;;;;;;;;;;;;;5.06;100.00;102074.97;5092839;28;19928;-70
2021/04/13 06:45:15;;;;;;;;;;;;;;;5.57;100.00;102067.69;5046776;28;19928;-69
2021/04/13 06:47:52;;;;;;;;;;;;;;;5.94;100.00;102064.41;5092592;28;20425;-71
2021/04/13 06:50:23;;;;;;;;;;;;;;;6.17;100.00;102063.50;5093675;28;19924;-70
2021/04/13 06:52:53;;;;;;;;;;;;;;;6.29;100.00;102072.88;5092519;28;19965;-70
2021/04/13 06:55:25;;;;;;;;;;;;;;;6.26;100.00;102074.84;5073036;28;19986;-70
2021/04/13 06:57:57;;;;;;;;;;;;;;;6.22;100.00;102068.69;5093311;28;19944;-70
2021/04/13 07:00:42;;;;;;;;;;;;;;;6.77;100.00;102070.00;5074173;28;19974;-70
2021/04/13 07:03:15;;;;;;;;;;;;;;;6.60;100.00;102066.22;5092741;28;19924;-70
2021/04/13 07:05:43;;;;;;;;;;;;;;;6.95;100.00;102070.97;5092501;28;20022;-70
2021/04/13 07:08:13;;;;;;;;;;;;;;;7.07;100.00;102064.16;5092306;28;19954;-71
2021/04/13 07:10:45;;;;;;;;;;;;;;;7.50;100.00;102060.34;5092881;28;20338;-71
2021/04/13 07:13:13;;;;;;;;;;;;;;;7.74;100.00;102068.25;5092508;28;20019;-71
2021/04/13 07:15:44;;;;;;;;;;;;;;;7.76;100.00;102058.22;5073890;28;19969;-71
2021/04/13 07:18:12;;;;;;;;;;;;;;;7.76;100.00;102063.63;5054987;28;20285;-71
2021/04/13 07:20:40;;;;;;;;;;;;;;;7.32;100.00;102054.00;5082328;28;19924;-71
2021/04/13 07:23:09;;;;;;;;;;;;;;;7.39;100.00;102060.00;5092382;28;20310;-71
2021/04/13 07:25:40;;;;;;;;;;;;;;;7.77;100.00;102062.69;5092331;28;20100;-70
2021/04/13 07:28:07;;;;;;;;;;;;;;;7.97;100.00;102061.72;5092995;28;19924;-71
2021/04/13 07:30:36;;;;;;;;;;;;;;;8.68;100.00;102057.31;5092535;28;19924;-71
2021/04/13 07:33:04;;;;;;;;;;;;;;;9.08;100.00;102057.06;5086398;28;19928;-70
2021/04/13 07:35:31;;;;;;;;;;;;;;;9.05;100.00;102052.66;5091465;28;20338;-70
2021/04/13 07:38:00;;;;;;;;;;;;;;;9.47;100.00;102056.69;5092040;28;19954;-70
2021/04/13 07:40:28;;;;;;;;;;;;;;;9.16;100.00;102058.38;5091235;28;19924;-70
2021/04/13 07:42:56;;;;;;;;;;;;;;;9.27;100.00;102060.50;5091552;28;19931;-71
2021/04/13 07:45:24;;;;;;;;;;;;;;;9.24;100.00;102052.53;5091472;28;19924;-70
2021/04/13 07:48:00;;;;;;;;;;;;;;;9.67;100.00;102054.69;5091263;28;19963;-71
2021/04/13 07:50:34;;;;;;;;;;;;;;;9.32;100.00;102057.53;5091951;28;19924;-71
2021/04/13 07:53:05;;;;;;;;;;;;;;;9.26;100.00;102063.28;5091673;28;19928;-71
2021/04/13 07:55:36;;;;;;;;;;;;;;;9.52;100.00;102051.88;5088976;28;19931;-71
2021/04/13 07:58:06;;;;;;;;;;;;;;;8.84;100.00;102058.25;5085002;28;19985;-70
2021/04/13 08:00:33;;;;;;;;;;;;;;;8.87;100.00;102058.13;5071502;28;19928;-71
2021/04/13 08:03:04;;;;;;;;;;;;;;;7.93;100.00;102052.00;5086321;28;19932;-70
2021/04/13 08:05:35;;;;;;;;;;;;;;;8.60;100.00;102060.41;5091642;28;19931;-70
2021/04/13 08:08:04;;;;;;;;;;;;;;;8.57;100.00;102057.00;5090077;28;19993;-70
2021/04/13 08:10:34;;;;;;;;;;;;;;;9.00;100.00;102052.91;5089413;28;19932;-71
2021/04/13 08:13:01;;;;;;;;;;;;;;;8.61;100.00;102047.78;5090299;28;19924;-71
2021/04/13 08:15:42;;;;;;;;;;;;;;;8.69;100.00;102056.38;5090855;28;19924;-71
2021/04/13 08:18:15;;;;;;;;;;;;;;;8.46;100.00;102054.88;5072944;28;19963;-70
2021/04/13 08:20:43;;;;;;;;;;;;;;;7.94;100.00;102044.78;5089460;28;19924;-71
2021/04/13 08:23:11;;;;;;;;;;;;;;;7.65;100.00;102061.44;5090856;28;19924;-71
2021/04/13 08:25:39;;;;;;;;;;;;;;;7.11;100.00;102049.56;5090509;28;19924;-71
2021/04/13 08:28:09;;;;;;;;;;;;;;;7.76;100.00;102062.78;5091050;28;19931;-70
2021/04/13 08:30:51;;;;;;;;;;;;;;;8.30;100.00;102052.03;5088941;28;19935;-70
2021/04/13 08:33:26;;;;;;;;;;;;;;;8.79;100.00;102049.53;5074320;28;19924;-71
2021/04/13 08:36:09;;;;;;;;;;;;;;;9.17;100.00;102049.28;5085479;28;19990;-71
2021/04/13 08:38:44;;;;;;;;;;;;;;;9.61;99.56;102047.78;5090396;28;19975;-71
2021/04/13 08:41:19;;;;;;;;;;;;;;;10.45;91.72;102043.91;5072986;28;19962;-71
2021/04/13 08:43:51;;;;;;;;;;;;;;;9.62;90.62;102051.38;5089981;28;19970;-71
2021/04/13 08:46:30;;;;;;;;;;;;;;;9.35;95.36;102058.25;5073933;28;19982;-71
2021/04/13 08:49:00;;;;;;;;;;;;;;;8.79;96.43;102065.78;5088695;28;19932;-71
2021/04/13 08:51:33;;;;;;;;;;;;;;;8.47;100.00;102076.44;5089842;28;19931;-71
2021/04/13 08:54:05;;;;;;;;;;;;;;;8.37;100.00;102075.97;5089244;28;19939;-71
2021/04/13 08:56:31;;;;;;;;;;;;;;;9.19;99.25;102062.75;5090199;28;20186;-71
2021/04/13 08:58:58;;;;;;;;;;;;;;;10.01;92.97;102066.34;5090141;28;19928;-71
2021/04/13 09:01:30;;;;;;;;;;;;;;;10.13;88.46;102065.63;5090663;28;20379;-71
2021/04/13 09:03:55;;;;;;;;;;;;;;;9.82;88.13;102069.22;5090758;28;19928;-71
2021/04/13 09:06:27;;;;;;;;;;;;;;;10.72;84.33;102071.22;5089959;28;20407;-71
2021/04/13 09:08:59;;;;;;;;;;;;;;;10.35;75.88;102075.28;5088499;28;20331;-71
2021/04/13 09:11:27;;;;;;;;;;;;;;;11.66;70.22;102066.34;5090015;28;19925;-71
2021/04/13 09:14:12;;;;;;;;;;;;;;;12.10;69.94;102059.00;5089060;28;20426;-71
2021/04/13 09:16:42;;;;;;;;;;;;;;;12.21;62.69;102059.13;5090395;28;19931;-72
2021/04/13 09:19:18;;;;;;;;;;;;;;;11.12;62.17;102062.47;5091008;28;19924;-71
2021/04/13 09:21:45;;;;;;;;;;;;;;;10.96;66.49;102064.41;5089980;28;19935;-71
2021/04/13 09:24:14;;;;;;;;;;;;;;;10.86;73.53;102064.97;5090209;28;19924;-71
2021/04/13 09:26:46;;;;;;;;;;;;;;;10.86;73.01;102064.97;5071721;28;19931;-71
2021/04/13 09:29:31;;;;;;;;;;;;;;;11.41;69.84;102059.78;5072693;28;19924;-71
2021/04/13 09:31:57;;;;;;;;;;;;;;;10.27;78.31;102056.69;5089711;28;19939;-71
2021/04/13 09:34:33;;;;;;;;;;;;;;;9.89;82.78;102052.53;5090214;28;19928;-71
2021/04/13 09:37:08;;;;;;;;;;;;;;;9.87;84.49;102059.88;5090192;28;20427;-71
2021/04/13 09:39:51;;;;;;;;;;;;;;;10.10;76.62;102056.78;5090329;28;19924;-71
2021/04/13 09:42:25;;;;;;;;;;;;;;;9.12;80.25;102056.78;5090535;28;19924;-71
2021/04/13 09:45:03;;;;;;;;;;;;;;;9.11;89.15;102057.72;5090114;28;20269;-71
2021/04/13 09:47:36;;;;;;;;;;;;;;;9.23;86.83;102058.91;5073328;28;19924;-71
2021/04/13 09:50:05;;;;;;;;;;;;;;;9.15;86.34;102051.22;5094468;28;19932;-71
2021/04/13 09:52:42;;;;;;;;;;;;;;;9.36;81.15;102040.16;5093629;28;19931;-71
2021/04/13 09:55:17;;;;;;;;;;;;;;;8.65;86.31;102052.06;5094164;28;19924;-70
2021/04/13 09:58:04;;;;;;;;;;;;;;;9.04;86.43;102050.91;5073677;28;19929;-71
2021/04/13 10:00:48;;;;;;;;;;;;;;;9.63;82.28;102051.28;5058122;28;20393;-71
2021/04/13 10:03:38;;;;;;;;;;;;;;;8.58;81.70;102048.81;5093953;28;20372;-71
2021/04/13 10:06:06;;;;;;;;;;;;;;;9.42;77.59;102047.06;5093297;28;19924;-71
2021/04/13 10:08:34;;;;;;;;;;;;;;;10.03;75.58;102042.72;5094025;28;19935;-71
2021/04/13 10:11:32;;;;;;;;;;;;;;;9.43;78.11;102041.56;5093551;28;19928;-72
2021/04/13 10:14:13;;;;;;;;;;;;;;;8.57;81.17;102046.19;5030624;28;19933;-72
2021/04/13 10:16:43;;;;;;;;;;;;;;;9.43;77.45;102041.56;5028243;28;20035;-71
2021/04/13 10:19:15;;;;;;;;;;;;;;;10.25;69.70;102042.34;5066108;28;19924;-71
2021/04/13 10:22:06;;;;;;;;;;;;;;;9.85;68.83;102041.94;5093492;28;19932;-72
2021/04/13 10:24:40;;;;;;;;;;;;;;;9.13;78.18;102045.00;5093261;28;19924;-71
2021/04/13 10:27:20;;;;;;;;;;;;;;;8.80;81.84;102048.53;5093063;28;19924;-71
2021/04/13 10:29:52;;;;;;;;;;;;;;;9.46;83.49;102041.41;5072852;28;19931;-72
2021/04/13 10:32:41;;;;;;;;;;;;;;;10.64;77.29;102045.50;5082539;28;19933;-72
2021/04/13 10:35:31;;;;;;;;;;;;;;;10.04;72.11;102036.34;5075186;28;19931;-72
2021/04/13 10:38:18;;;;;;;;;;;;;;;9.47;75.61;102040.41;5062007;28;19930;-71
2021/04/13 10:40:59;;;;;;;;;;;;;;;9.07;75.63;102044.47;5093130;28;20375;-72
2021/04/13 10:43:41;;;;;;;;;;;;;;;8.36;80.39;102051.69;5075302;28;19931;-71
2021/04/13 10:46:15;;;;;;;;;;;;;;;8.18;84.41;102050.81;5093110;28;19931;-71
2021/04/13 10:48:59;;;;;;;;;;;;;;;7.91;88.70;102045.81;5092777;28;19924;-71
2021/04/13 10:51:35;;;;;;;;;;;;;;;7.87;92.60;102044.22;5092902;28;19984;-72
2021/04/13 10:54:14;;;;;;;;;;;;;;;8.05;89.77;102031.59;5077663;28;20013;-71
2021/04/13 10:57:04;;;;;;;;;;;;;;;9.47;88.69;102034.13;5074437;28;19967;-72
2021/04/13 10:59:44;;;;;;;;;;;;;;;11.20;75.80;102030.25;5092719;28;19924;-73
2021/04/13 11:02:39;;;;;;;;;;;;;;;10.69;67.94;102036.13;5074666;28;19931;-71
2021/04/13 11:05:17;;;;;;;;;;;;;;;9.75;78.17;102044.28;5093399;28;19931;-72
2021/04/13 11:08:03;;;;;;;;;;;;;;;9.53;76.67;102029.25;5091953;28;19928;-71
2021/04/13 11:10:42;;;;;;;;;;;;;;;8.74;77.09;102031.75;5092861;28;20008;-71
2021/04/13 11:13:28;;;;;;;;;;;;;;;8.28;83.24;102034.97;5079347;28;19977;-71
2021/04/13 11:16:20;;;;;;;;;;;;;;;8.85;83.85;102034.78;5092237;28;20256;-70
2021/04/13 11:18:58;;;;;;;;;;;;;;;10.13;71.54;102027.66;5092471;28;19958;-71
2021/04/13 11:21:43;;;;;;;;;;;;;;;11.21;63.87;102023.84;5092400;28;20298;-70
2021/04/13 11:24:22;;;;;;;;;;;;;;;10.21;61.60;102024.50;5092610;28;19924;-73
2021/04/13 11:27:09;;;;;;;;;;;;;;;9.41;64.25;102021.81;5092106;28;20379;-72
2021/04/13 11:30:07;;;;;;;;;;;;;;;9.45;73.64;102025.22;5074254;28;19924;-73
2021/04/13 11:32:48;;;;;;;;;;;;;;;10.01;62.93;102029.25;5092406;28;20026;-73
2021/04/13 11:35:18;;;;;;;;;;;;;;;10.67;59.55;102024.47;5091817;28;19986;-72
2021/04/13 11:37:51;;;;;;;;;;;;;;;11.93;54.11;102021.97;5091998;28;20344;-71
2021/04/13 11:40:26;;;;;;;;;;;;;;;11.36;52.57;102019.28;5091391;28;19928;-72
2021/04/13 11:42:53;;;;;;;;;;;;;;;11.32;55.21;102023.16;5091623;28;20139;-72
2021/04/13 11:45:26;;;;;;;;;;;;;;;10.68;56.45;102038.94;5091902;28;20001;-72
2021/04/13 11:47:55;;;;;;;;;;;;;;;10.89;57.80;102032.16;5073363;28;19928;-72
2021/04/13 11:50:25;;;;;;;;;;;;;;;11.08;59.07;102030.13;5092068;28;20339;-72
2021/04/13 11:52:53;;;;;;;;;;;;;;;10.66;59.22;102035.41;5073073;28;20320;-72
2021/04/13 11:55:38;;;;;;;;;;;;;;;10.25;57.01;102025.16;5091900;28;19924;-72
2021/04/13 11:58:06;;;;;;;;;;;;;;;9.69;58.55;102031.09;5091525;28;19931;-72
2021/04/13 12:00:33;;;;;;;;;;;;;;;9.24;67.77;102032.72;5091972;28;19931;-72
2021/04/13 12:03:01;;;;;;;;;;;;;;;8.63;69.62;102032.31;5090852;28;21599;-72
2021/04/13 12:05:28;;;;;;;;;;;;;;;8.01;74.37;102027.31;5073186;28;19993;-72
2021/04/13 12:07:55;;;;;;;;;;;;;;;7.89;78.53;102026.09;5090659;28;21358;-72
2021/04/13 12:10:40;;;;;;;;;;;;;;;7.97;78.67;102029.28;5090295;28;19931;-72
2021/04/13 12:13:06;;;;;;;;;;;;;;;8.82;68.56;102014.16;5091383;28;19950;-72
2021/04/13 12:15:35;;;;;;;;;;;;;;;9.25;64.88;102012.78;5091208;28;20388;-72
2021/04/13 12:18:02;;;;;;;;;;;;;;;9.26;61.55;102012.69;5091256;28;19986;-72
2021/04/13 12:20:46;;;;;;;;;;;;;;;9.48;60.11;102012.38;5090885;28;19931;-72
2021/04/13 12:23:31;;;;;;;;;;;;;;;9.45;60.26;102009.84;5090874;28;19928;-72
2021/04/13 12:26:07;;;;;;;;;;;;;;;10.63;57.35;102001.19;5090018;28;19997;-73
2021/04/13 12:28:47;;;;;;;;;;;;;;;10.09;55.32;102009.81;5091115;28;20514;-72
2021/04/13 12:31:22;;;;;;;;;;;;;;;9.98;57.49;102006.84;5090456;28;19981;-72
2021/04/13 12:33:53;;;;;;;;;;;;;;;9.34;58.97;102007.72;5090946;28;20451;-72
2021/04/13 12:36:38;;;;;;;;;;;;;;;8.96;61.69;102007.97;5071999;28;20282;-72
2021/04/13 12:39:04;;;;;;;;;;;;;;;9.01;68.52;102010.47;5090847;28;19924;-72
2021/04/13 12:41:31;;;;;;;;;;;;;;;9.13;68.91;102001.66;5072493;28;19953;-72
2021/04/13 12:43:58;;;;;;;;;;;;;;;9.47;68.99;102002.47;5090735;28;20023;-72
2021/04/13 12:46:26;;;;;;;;;;;;;;;10.49;62.51;102001.13;5091138;28;19931;-72
2021/04/13 12:48:53;;;;;;;;;;;;;;;10.89;58.55;101990.56;5089917;28;19939;-72
2021/04/13 12:51:28;;;;;;;;;;;;;;;11.54;55.11;101990.03;5089780;28;19935;-73
2021/04/13 12:54:14;;;;;;;;;;;;;;;12.12;52.97;101989.88;5079651;28;20404;-72